sensor_id;sensor_type;location;lat;lon;timestamp;P1;durP1;ratioP1;P2;durP2;ratioP2
52067;SDS011;60237;52.338;21.228;2022-10-13T00:00:53;129.00;;;43.42;;
52067;SDS011;60237;52.338;21.228;2022-10-13T00:03:19;163.05;;;48.83;;
52067;SDS011;60237;52.338;21.228;2022-10-13T00:05:47;151.52;;;48.85;;
52067;SDS011;60237;52.338;21.228;2022-10-13T00:08:15;129.23;;;47.25;;
52067;SDS011;60237;52.338;21.228;2022-10-13T00:10:44;120.43;;;42.90;;
52067;SDS011;60237;52.338;21.228;2022-10-13T00:13:11;131.40;;;44.45;;
52067;SDS011;60237;52.338;21.228;2022-10-13T00:15:38;193.13;;;49.92;;
52067;SDS011;60237;52.338;21.228;2022-10-13T00:18:06;115.80;;;43.72;;
52067;SDS011;60237;52.338;21.228;2022-10-13T00:20:32;137.77;;;48.63;;
52067;SDS011;60237;52.338;21.228;2022-10-13T00:22:59;133.48;;;50.13;;
52067;SDS011;60237;52.338;21.228;2022-10-13T00:25:26;160.07;;;52.97;;
52067;SDS011;60237;52.338;21.228;2022-10-13T00:27:52;148.50;;;51.35;;
52067;SDS011;60237;52.338;21.228;2022-10-13T00:30:21;172.82;;;62.22;;
52067;SDS011;60237;52.338;21.228;2022-10-13T00:32:48;173.55;;;62.65;;
52067;SDS011;60237;52.338;21.228;2022-10-13T00:35:15;146.13;;;54.75;;
52067;SDS011;60237;52.338;21.228;2022-10-13T00:37:41;132.65;;;51.40;;
52067;SDS011;60237;52.338;21.228;2022-10-13T00:40:08;118.10;;;48.72;;
52067;SDS011;60237;52.338;21.228;2022-10-13T00:42:35;172.80;;;54.58;;
52067;SDS011;60237;52.338;21.228;2022-10-13T00:47:34;143.77;;;54.97;;
52067;SDS011;60237;52.338;21.228;2022-10-13T00:50:02;136.55;;;53.58;;
52067;SDS011;60237;52.338;21.228;2022-10-13T00:52:30;141.18;;;49.88;;
52067;SDS011;60237;52.338;21.228;2022-10-13T00:54:57;138.57;;;50.88;;
52067;SDS011;60237;52.338;21.228;2022-10-13T00:57:24;170.57;;;54.60;;
52067;SDS011;60237;52.338;21.228;2022-10-13T00:59:51;157.23;;;54.40;;
52067;SDS011;60237;52.338;21.228;2022-10-13T01:02:17;172.35;;;52.15;;
52067;SDS011;60237;52.338;21.228;2022-10-13T01:04:45;140.15;;;48.75;;
52067;SDS011;60237;52.338;21.228;2022-10-13T01:07:13;136.27;;;52.47;;
52067;SDS011;60237;52.338;21.228;2022-10-13T01:09:40;175.45;;;56.72;;
52067;SDS011;60237;52.338;21.228;2022-10-13T01:14:45;144.05;;;52.78;;
52067;SDS011;60237;52.338;21.228;2022-10-13T01:27:45;159.63;;;51.60;;
52067;SDS011;60237;52.338;21.228;2022-10-13T01:30:19;139.00;;;50.05;;
52067;SDS011;60237;52.338;21.228;2022-10-13T01:32:55;153.10;;;55.50;;
52067;SDS011;60237;52.338;21.228;2022-10-13T01:35:46;145.77;;;54.42;;
52067;SDS011;60237;52.338;21.228;2022-10-13T01:41:07;156.25;;;53.00;;
52067;SDS011;60237;52.338;21.228;2022-10-13T01:43:37;151.93;;;53.78;;
52067;SDS011;60237;52.338;21.228;2022-10-13T01:48:31;189.40;;;57.83;;
52067;SDS011;60237;52.338;21.228;2022-10-13T01:50:58;159.30;;;55.20;;
52067;SDS011;60237;52.338;21.228;2022-10-13T01:53:25;154.32;;;49.97;;
52067;SDS011;60237;52.338;21.228;2022-10-13T01:55:53;141.10;;;50.33;;
52067;SDS011;60237;52.338;21.228;2022-10-13T01:58:20;165.70;;;53.45;;
52067;SDS011;60237;52.338;21.228;2022-10-13T02:00:57;212.25;;;59.67;;
52067;SDS011;60237;52.338;21.228;2022-10-13T02:03:29;156.93;;;53.42;;
52067;SDS011;60237;52.338;21.228;2022-10-13T02:06:12;129.65;;;47.65;;
52067;SDS011;60237;52.338;21.228;2022-10-13T02:08:44;152.63;;;50.20;;
52067;SDS011;60237;52.338;21.228;2022-10-13T02:11:14;137.63;;;49.95;;
52067;SDS011;60237;52.338;21.228;2022-10-13T02:13:43;141.18;;;53.65;;
52067;SDS011;60237;52.338;21.228;2022-10-13T02:16:19;142.38;;;52.95;;
52067;SDS011;60237;52.338;21.228;2022-10-13T02:18:48;158.13;;;53.70;;
52067;SDS011;60237;52.338;21.228;2022-10-13T02:21:15;171.25;;;56.67;;
52067;SDS011;60237;52.338;21.228;2022-10-13T02:23:43;144.60;;;53.00;;
52067;SDS011;60237;52.338;21.228;2022-10-13T02:26:10;150.98;;;54.67;;
52067;SDS011;60237;52.338;21.228;2022-10-13T02:28:36;162.45;;;54.97;;
52067;SDS011;60237;52.338;21.228;2022-10-13T02:31:03;151.88;;;56.65;;
52067;SDS011;60237;52.338;21.228;2022-10-13T02:33:32;157.63;;;55.55;;
52067;SDS011;60237;52.338;21.228;2022-10-13T02:35:59;186.35;;;60.10;;
52067;SDS011;60237;52.338;21.228;2022-10-13T02:38:25;183.80;;;57.85;;
52067;SDS011;60237;52.338;21.228;2022-10-13T02:40:52;198.48;;;59.33;;
52067;SDS011;60237;52.338;21.228;2022-10-13T02:43:20;163.45;;;55.60;;
52067;SDS011;60237;52.338;21.228;2022-10-13T02:45:47;155.65;;;57.47;;
52067;SDS011;60237;52.338;21.228;2022-10-13T02:48:13;150.25;;;58.55;;
52067;SDS011;60237;52.338;21.228;2022-10-13T02:50:40;184.27;;;59.40;;
52067;SDS011;60237;52.338;21.228;2022-10-13T02:53:06;197.60;;;65.68;;
52067;SDS011;60237;52.338;21.228;2022-10-13T02:55:33;188.32;;;64.57;;
52067;SDS011;60237;52.338;21.228;2022-10-13T02:57:59;205.48;;;61.92;;
52067;SDS011;60237;52.338;21.228;2022-10-13T03:00:25;184.63;;;59.15;;
52067;SDS011;60237;52.338;21.228;2022-10-13T03:02:52;156.32;;;56.92;;
52067;SDS011;60237;52.338;21.228;2022-10-13T03:05:19;164.02;;;55.45;;
52067;SDS011;60237;52.338;21.228;2022-10-13T03:07:45;200.85;;;58.38;;
52067;SDS011;60237;52.338;21.228;2022-10-13T03:10:12;158.85;;;54.33;;
52067;SDS011;60237;52.338;21.228;2022-10-13T03:12:38;172.35;;;58.22;;
52067;SDS011;60237;52.338;21.228;2022-10-13T03:15:05;176.07;;;56.78;;
52067;SDS011;60237;52.338;21.228;2022-10-13T03:17:32;174.65;;;60.83;;
52067;SDS011;60237;52.338;21.228;2022-10-13T03:19:58;191.10;;;61.47;;
52067;SDS011;60237;52.338;21.228;2022-10-13T03:22:25;180.73;;;62.20;;
52067;SDS011;60237;52.338;21.228;2022-10-13T03:24:52;161.32;;;57.95;;
52067;SDS011;60237;52.338;21.228;2022-10-13T03:27:18;178.48;;;63.25;;
52067;SDS011;60237;52.338;21.228;2022-10-13T03:29:46;201.05;;;64.80;;
52067;SDS011;60237;52.338;21.228;2022-10-13T03:32:12;200.13;;;68.15;;
52067;SDS011;60237;52.338;21.228;2022-10-13T03:34:39;188.32;;;67.28;;
52067;SDS011;60237;52.338;21.228;2022-10-13T03:37:05;207.23;;;67.63;;
52067;SDS011;60237;52.338;21.228;2022-10-13T03:39:37;198.55;;;70.03;;
52067;SDS011;60237;52.338;21.228;2022-10-13T03:42:04;203.55;;;71.18;;
52067;SDS011;60237;52.338;21.228;2022-10-13T03:44:31;197.68;;;68.85;;
52067;SDS011;60237;52.338;21.228;2022-10-13T03:46:58;189.35;;;72.35;;
52067;SDS011;60237;52.338;21.228;2022-10-13T03:49:24;183.40;;;70.80;;
52067;SDS011;60237;52.338;21.228;2022-10-13T03:51:51;235.77;;;73.40;;
52067;SDS011;60237;52.338;21.228;2022-10-13T03:54:17;307.80;;;74.50;;
52067;SDS011;60237;52.338;21.228;2022-10-13T03:56:46;210.93;;;72.18;;
52067;SDS011;60237;52.338;21.228;2022-10-13T03:59:13;222.35;;;68.43;;
52067;SDS011;60237;52.338;21.228;2022-10-13T04:01:42;190.63;;;72.40;;
52067;SDS011;60237;52.338;21.228;2022-10-13T04:04:09;218.18;;;73.20;;
52067;SDS011;60237;52.338;21.228;2022-10-13T04:06:36;221.05;;;72.85;;
52067;SDS011;60237;52.338;21.228;2022-10-13T04:09:02;217.23;;;72.25;;
52067;SDS011;60237;52.338;21.228;2022-10-13T04:11:29;193.05;;;71.10;;
52067;SDS011;60237;52.338;21.228;2022-10-13T04:13:56;199.77;;;70.45;;
52067;SDS011;60237;52.338;21.228;2022-10-13T04:16:27;199.85;;;70.68;;
52067;SDS011;60237;52.338;21.228;2022-10-13T04:18:56;197.35;;;69.00;;
52067;SDS011;60237;52.338;21.228;2022-10-13T04:21:23;252.98;;;76.05;;
52067;SDS011;60237;52.338;21.228;2022-10-13T04:23:49;203.45;;;72.95;;
52067;SDS011;60237;52.338;21.228;2022-10-13T04:26:17;221.70;;;75.65;;
52067;SDS011;60237;52.338;21.228;2022-10-13T04:28:45;256.42;;;77.80;;
52067;SDS011;60237;52.338;21.228;2022-10-13T04:31:12;217.38;;;71.50;;
52067;SDS011;60237;52.338;21.228;2022-10-13T04:33:39;215.73;;;71.63;;
52067;SDS011;60237;52.338;21.228;2022-10-13T04:36:06;210.80;;;72.15;;
52067;SDS011;60237;52.338;21.228;2022-10-13T04:38:33;205.27;;;68.72;;
52067;SDS011;60237;52.338;21.228;2022-10-13T04:41:02;176.18;;;68.13;;
52067;SDS011;60237;52.338;21.228;2022-10-13T04:43:29;195.95;;;67.22;;
52067;SDS011;60237;52.338;21.228;2022-10-13T04:46:05;188.95;;;64.28;;
52067;SDS011;60237;52.338;21.228;2022-10-13T04:48:31;216.90;;;69.65;;
52067;SDS011;60237;52.338;21.228;2022-10-13T04:50:59;177.85;;;65.85;;
52067;SDS011;60237;52.338;21.228;2022-10-13T04:53:26;194.40;;;67.22;;
52067;SDS011;60237;52.338;21.228;2022-10-13T04:55:55;210.27;;;68.38;;
52067;SDS011;60237;52.338;21.228;2022-10-13T04:58:21;192.02;;;66.25;;
52067;SDS011;60237;52.338;21.228;2022-10-13T05:00:48;216.80;;;68.55;;
52067;SDS011;60237;52.338;21.228;2022-10-13T05:03:15;201.77;;;65.93;;
52067;SDS011;60237;52.338;21.228;2022-10-13T05:05:41;188.55;;;65.65;;
52067;SDS011;60237;52.338;21.228;2022-10-13T05:08:08;186.68;;;65.53;;
52067;SDS011;60237;52.338;21.228;2022-10-13T05:10:34;236.25;;;68.35;;
52067;SDS011;60237;52.338;21.228;2022-10-13T05:13:01;195.32;;;64.55;;
52067;SDS011;60237;52.338;21.228;2022-10-13T05:15:27;205.45;;;64.60;;
52067;SDS011;60237;52.338;21.228;2022-10-13T05:17:54;189.20;;;64.25;;
52067;SDS011;60237;52.338;21.228;2022-10-13T05:20:20;234.15;;;67.28;;
52067;SDS011;60237;52.338;21.228;2022-10-13T05:22:47;205.52;;;63.50;;
52067;SDS011;60237;52.338;21.228;2022-10-13T05:25:13;183.20;;;64.57;;
52067;SDS011;60237;52.338;21.228;2022-10-13T05:27:40;201.90;;;66.72;;
52067;SDS011;60237;52.338;21.228;2022-10-13T05:30:07;176.50;;;62.88;;
52067;SDS011;60237;52.338;21.228;2022-10-13T05:32:34;189.35;;;61.50;;
52067;SDS011;60237;52.338;21.228;2022-10-13T05:35:01;173.40;;;61.17;;
52067;SDS011;60237;52.338;21.228;2022-10-13T05:37:27;179.93;;;63.30;;
52067;SDS011;60237;52.338;21.228;2022-10-13T05:39:54;173.80;;;60.50;;
52067;SDS011;60237;52.338;21.228;2022-10-13T05:42:20;194.30;;;60.08;;
52067;SDS011;60237;52.338;21.228;2022-10-13T05:44:47;184.63;;;59.95;;
52067;SDS011;60237;52.338;21.228;2022-10-13T05:47:14;215.93;;;62.40;;
52067;SDS011;60237;52.338;21.228;2022-10-13T05:49:43;212.30;;;64.05;;
52067;SDS011;60237;52.338;21.228;2022-10-13T05:52:10;201.68;;;61.92;;
52067;SDS011;60237;52.338;21.228;2022-10-13T05:54:44;254.82;;;65.82;;
52067;SDS011;60237;52.338;21.228;2022-10-13T05:57:20;203.55;;;65.97;;
52067;SDS011;60237;52.338;21.228;2022-10-13T05:59:57;208.48;;;66.57;;
52067;SDS011;60237;52.338;21.228;2022-10-13T06:02:26;182.23;;;64.93;;
52067;SDS011;60237;52.338;21.228;2022-10-13T06:04:54;180.80;;;66.07;;
52067;SDS011;60237;52.338;21.228;2022-10-13T06:07:22;219.38;;;70.72;;
52067;SDS011;60237;52.338;21.228;2022-10-13T06:09:49;182.00;;;67.88;;
52067;SDS011;60237;52.338;21.228;2022-10-13T06:12:15;171.73;;;65.13;;
52067;SDS011;60237;52.338;21.228;2022-10-13T06:14:42;175.05;;;65.60;;
52067;SDS011;60237;52.338;21.228;2022-10-13T06:17:10;175.88;;;63.25;;
52067;SDS011;60237;52.338;21.228;2022-10-13T06:19:41;162.68;;;64.22;;
52067;SDS011;60237;52.338;21.228;2022-10-13T06:22:08;143.10;;;58.55;;
52067;SDS011;60237;52.338;21.228;2022-10-13T06:24:34;123.75;;;47.95;;
52067;SDS011;60237;52.338;21.228;2022-10-13T06:27:02;84.30;;;38.75;;
52067;SDS011;60237;52.338;21.228;2022-10-13T06:29:28;111.78;;;37.13;;
52067;SDS011;60237;52.338;21.228;2022-10-13T06:31:55;87.63;;;33.97;;
52067;SDS011;60237;52.338;21.228;2022-10-13T06:34:21;85.75;;;34.53;;
52067;SDS011;60237;52.338;21.228;2022-10-13T06:36:48;206.80;;;39.92;;
52067;SDS011;60237;52.338;21.228;2022-10-13T06:39:14;140.32;;;40.65;;
52067;SDS011;60237;52.338;21.228;2022-10-13T06:41:41;102.45;;;34.67;;
52067;SDS011;60237;52.338;21.228;2022-10-13T06:44:07;92.90;;;34.08;;
52067;SDS011;60237;52.338;21.228;2022-10-13T06:46:34;87.38;;;32.47;;
52067;SDS011;60237;52.338;21.228;2022-10-13T06:49:00;104.20;;;32.55;;
52067;SDS011;60237;52.338;21.228;2022-10-13T06:51:27;194.02;;;38.15;;
52067;SDS011;60237;52.338;21.228;2022-10-13T06:53:54;87.25;;;32.33;;
52067;SDS011;60237;52.338;21.228;2022-10-13T06:56:24;79.15;;;30.23;;
52067;SDS011;60237;52.338;21.228;2022-10-13T06:58:50;93.50;;;32.05;;
52067;SDS011;60237;52.338;21.228;2022-10-13T07:01:17;97.20;;;31.85;;
52067;SDS011;60237;52.338;21.228;2022-10-13T07:03:46;104.10;;;31.25;;
52067;SDS011;60237;52.338;21.228;2022-10-13T07:06:13;95.97;;;31.02;;
52067;SDS011;60237;52.338;21.228;2022-10-13T07:08:39;117.97;;;32.78;;
52067;SDS011;60237;52.338;21.228;2022-10-13T07:11:07;88.50;;;30.10;;
52067;SDS011;60237;52.338;21.228;2022-10-13T07:13:41;93.57;;;27.50;;
52067;SDS011;60237;52.338;21.228;2022-10-13T07:16:13;100.07;;;28.13;;
52067;SDS011;60237;52.338;21.228;2022-10-13T07:18:39;143.60;;;32.90;;
52067;SDS011;60237;52.338;21.228;2022-10-13T07:21:06;78.78;;;26.42;;
52067;SDS011;60237;52.338;21.228;2022-10-13T07:23:32;82.20;;;26.67;;
52067;SDS011;60237;52.338;21.228;2022-10-13T07:25:59;54.10;;;22.45;;
52067;SDS011;60237;52.338;21.228;2022-10-13T07:28:27;103.05;;;24.45;;
52067;SDS011;60237;52.338;21.228;2022-10-13T07:30:53;74.45;;;22.55;;
52067;SDS011;60237;52.338;21.228;2022-10-13T07:33:20;81.47;;;23.83;;
52067;SDS011;60237;52.338;21.228;2022-10-13T07:35:47;77.03;;;21.25;;
52067;SDS011;60237;52.338;21.228;2022-10-13T07:38:13;125.05;;;21.67;;
52067;SDS011;60237;52.338;21.228;2022-10-13T07:40:45;64.75;;;20.77;;
52067;SDS011;60237;52.338;21.228;2022-10-13T07:43:11;101.80;;;21.83;;
52067;SDS011;60237;52.338;21.228;2022-10-13T07:45:38;94.57;;;19.23;;
52067;SDS011;60237;52.338;21.228;2022-10-13T07:48:05;52.97;;;17.88;;
52067;SDS011;60237;52.338;21.228;2022-10-13T07:50:31;68.40;;;17.48;;
52067;SDS011;60237;52.338;21.228;2022-10-13T07:52:58;90.18;;;19.27;;
52067;SDS011;60237;52.338;21.228;2022-10-13T07:55:25;90.40;;;17.58;;
52067;SDS011;60237;52.338;21.228;2022-10-13T07:57:52;104.03;;;20.48;;
52067;SDS011;60237;52.338;21.228;2022-10-13T08:00:19;44.75;;;15.45;;
52067;SDS011;60237;52.338;21.228;2022-10-13T08:02:48;89.60;;;17.63;;
52067;SDS011;60237;52.338;21.228;2022-10-13T08:05:14;86.05;;;17.33;;
52067;SDS011;60237;52.338;21.228;2022-10-13T08:07:41;83.18;;;17.08;;
52067;SDS011;60237;52.338;21.228;2022-10-13T08:10:08;54.80;;;14.90;;
52067;SDS011;60237;52.338;21.228;2022-10-13T08:12:35;84.13;;;16.60;;
52067;SDS011;60237;52.338;21.228;2022-10-13T08:15:04;48.85;;;14.30;;
52067;SDS011;60237;52.338;21.228;2022-10-13T08:17:32;73.47;;;16.00;;
52067;SDS011;60237;52.338;21.228;2022-10-13T08:19:58;64.80;;;15.52;;
52067;SDS011;60237;52.338;21.228;2022-10-13T08:22:26;57.83;;;15.00;;
52067;SDS011;60237;52.338;21.228;2022-10-13T08:24:53;53.25;;;12.45;;
52067;SDS011;60237;52.338;21.228;2022-10-13T08:27:22;81.00;;;16.20;;
52067;SDS011;60237;52.338;21.228;2022-10-13T08:30:02;55.38;;;12.25;;
52067;SDS011;60237;52.338;21.228;2022-10-13T08:32:31;50.22;;;11.98;;
52067;SDS011;60237;52.338;21.228;2022-10-13T08:34:57;37.38;;;10.90;;
52067;SDS011;60237;52.338;21.228;2022-10-13T08:37:24;66.78;;;14.10;;
52067;SDS011;60237;52.338;21.228;2022-10-13T08:39:53;93.38;;;15.43;;
52067;SDS011;60237;52.338;21.228;2022-10-13T08:42:20;49.10;;;12.05;;
52067;SDS011;60237;52.338;21.228;2022-10-13T08:44:52;73.15;;;11.38;;
52067;SDS011;60237;52.338;21.228;2022-10-13T08:47:43;44.60;;;9.13;;
52067;SDS011;60237;52.338;21.228;2022-10-13T08:50:12;52.20;;;9.33;;
52067;SDS011;60237;52.338;21.228;2022-10-13T08:52:42;56.75;;;11.02;;
52067;SDS011;60237;52.338;21.228;2022-10-13T08:55:15;77.00;;;10.02;;
52067;SDS011;60237;52.338;21.228;2022-10-13T08:57:42;78.60;;;11.80;;
52067;SDS011;60237;52.338;21.228;2022-10-13T09:00:11;42.35;;;7.60;;
52067;SDS011;60237;52.338;21.228;2022-10-13T09:02:40;41.28;;;7.80;;
52067;SDS011;60237;52.338;21.228;2022-10-13T09:05:10;40.15;;;6.93;;
52067;SDS011;60237;52.338;21.228;2022-10-13T09:07:39;57.80;;;7.03;;
52067;SDS011;60237;52.338;21.228;2022-10-13T09:10:08;73.03;;;8.90;;
52067;SDS011;60237;52.338;21.228;2022-10-13T09:12:35;75.18;;;8.82;;
52067;SDS011;60237;52.338;21.228;2022-10-13T09:15:08;36.83;;;6.85;;
52067;SDS011;60237;52.338;21.228;2022-10-13T09:17:36;32.92;;;6.13;;
52067;SDS011;60237;52.338;21.228;2022-10-13T09:20:13;69.90;;;7.93;;
52067;SDS011;60237;52.338;21.228;2022-10-13T09:22:41;57.75;;;8.05;;
52067;SDS011;60237;52.338;21.228;2022-10-13T09:35:30;29.73;;;5.97;;
52067;SDS011;60237;52.338;21.228;2022-10-13T09:38:01;152.32;;;12.85;;
52067;SDS011;60237;52.338;21.228;2022-10-13T09:40:28;43.80;;;5.28;;
52067;SDS011;60237;52.338;21.228;2022-10-13T09:42:58;54.83;;;6.60;;
52067;SDS011;60237;52.338;21.228;2022-10-13T09:45:26;32.72;;;5.35;;
52067;SDS011;60237;52.338;21.228;2022-10-13T09:47:59;69.55;;;8.93;;
52067;SDS011;60237;52.338;21.228;2022-10-13T09:50:29;60.70;;;7.43;;
52067;SDS011;60237;52.338;21.228;2022-10-13T09:58:43;56.08;;;6.28;;
52067;SDS011;60237;52.338;21.228;2022-10-13T10:01:22;36.97;;;5.07;;
52067;SDS011;60237;52.338;21.228;2022-10-13T10:03:50;486.23;;;38.28;;
52067;SDS011;60237;52.338;21.228;2022-10-13T10:06:17;138.13;;;12.90;;
52067;SDS011;60237;52.338;21.228;2022-10-13T10:08:48;102.28;;;8.25;;
52067;SDS011;60237;52.338;21.228;2022-10-13T10:11:30;34.53;;;4.40;;
52067;SDS011;60237;52.338;21.228;2022-10-13T10:16:41;123.93;;;29.75;;
52067;SDS011;60237;52.338;21.228;2022-10-13T10:19:31;41.17;;;5.18;;
52067;SDS011;60237;52.338;21.228;2022-10-13T10:24:42;52.05;;;5.47;;
52067;SDS011;60237;52.338;21.228;2022-10-13T10:27:23;52.30;;;5.90;;
52067;SDS011;60237;52.338;21.228;2022-10-13T10:29:53;43.45;;;4.68;;
52067;SDS011;60237;52.338;21.228;2022-10-13T10:34:59;54.50;;;6.53;;
52067;SDS011;60237;52.338;21.228;2022-10-13T10:45:32;58.73;;;6.57;;
52067;SDS011;60237;52.338;21.228;2022-10-13T10:48:00;28.77;;;4.45;;
52067;SDS011;60237;52.338;21.228;2022-10-13T10:50:28;58.92;;;6.28;;
52067;SDS011;60237;52.338;21.228;2022-10-13T10:53:07;56.40;;;5.78;;
52067;SDS011;60237;52.338;21.228;2022-10-13T10:55:42;60.80;;;6.85;;
52067;SDS011;60237;52.338;21.228;2022-10-13T10:58:17;98.55;;;9.07;;
52067;SDS011;60237;52.338;21.228;2022-10-13T11:03:24;51.63;;;5.30;;
52067;SDS011;60237;52.338;21.228;2022-10-13T11:05:59;43.13;;;4.85;;
52067;SDS011;60237;52.338;21.228;2022-10-13T11:08:27;27.48;;;3.45;;
52067;SDS011;60237;52.338;21.228;2022-10-13T11:13:58;41.65;;;5.38;;
52067;SDS011;60237;52.338;21.228;2022-10-13T11:16:32;99.95;;;8.98;;
52067;SDS011;60237;52.338;21.228;2022-10-13T11:27:44;42.90;;;5.68;;
52067;SDS011;60237;52.338;21.228;2022-10-13T11:35:11;63.28;;;6.55;;
52067;SDS011;60237;52.338;21.228;2022-10-13T11:37:56;57.45;;;5.50;;
52067;SDS011;60237;52.338;21.228;2022-10-13T11:53:53;108.93;;;9.07;;
52067;SDS011;60237;52.338;21.228;2022-10-13T11:56:33;53.67;;;6.28;;
52067;SDS011;60237;52.338;21.228;2022-10-13T11:59:16;53.97;;;5.35;;
52067;SDS011;60237;52.338;21.228;2022-10-13T12:01:44;54.15;;;5.15;;
52067;SDS011;60237;52.338;21.228;2022-10-13T12:04:13;78.72;;;6.70;;
52067;SDS011;60237;52.338;21.228;2022-10-13T12:06:40;59.08;;;5.88;;
52067;SDS011;60237;52.338;21.228;2022-10-13T12:09:16;45.10;;;5.10;;
52067;SDS011;60237;52.338;21.228;2022-10-13T12:11:44;61.38;;;6.15;;
52067;SDS011;60237;52.338;21.228;2022-10-13T12:14:20;43.55;;;4.63;;
52067;SDS011;60237;52.338;21.228;2022-10-13T12:16:52;49.55;;;4.93;;
52067;SDS011;60237;52.338;21.228;2022-10-13T12:19:20;44.30;;;4.95;;
52067;SDS011;60237;52.338;21.228;2022-10-13T12:21:50;67.80;;;6.43;;
52067;SDS011;60237;52.338;21.228;2022-10-13T12:24:20;64.28;;;11.65;;
52067;SDS011;60237;52.338;21.228;2022-10-13T12:26:47;67.15;;;6.05;;
52067;SDS011;60237;52.338;21.228;2022-10-13T12:29:14;62.00;;;6.13;;
52067;SDS011;60237;52.338;21.228;2022-10-13T12:31:42;61.03;;;5.97;;
52067;SDS011;60237;52.338;21.228;2022-10-13T12:34:16;54.95;;;5.45;;
52067;SDS011;60237;52.338;21.228;2022-10-13T12:36:44;83.90;;;7.78;;
52067;SDS011;60237;52.338;21.228;2022-10-13T12:39:12;63.13;;;6.53;;
52067;SDS011;60237;52.338;21.228;2022-10-13T12:41:43;47.47;;;4.82;;
52067;SDS011;60237;52.338;21.228;2022-10-13T12:44:13;43.30;;;5.30;;
52067;SDS011;60237;52.338;21.228;2022-10-13T12:52:16;30.63;;;3.92;;
52067;SDS011;60237;52.338;21.228;2022-10-13T12:54:46;76.20;;;6.82;;
52067;SDS011;60237;52.338;21.228;2022-10-13T12:57:16;74.70;;;7.50;;
52067;SDS011;60237;52.338;21.228;2022-10-13T12:59:43;96.28;;;9.20;;
52067;SDS011;60237;52.338;21.228;2022-10-13T13:02:21;126.88;;;10.60;;
52067;SDS011;60237;52.338;21.228;2022-10-13T13:04:49;68.07;;;16.17;;
52067;SDS011;60237;52.338;21.228;2022-10-13T13:07:29;50.42;;;6.68;;
52067;SDS011;60237;52.338;21.228;2022-10-13T13:12:29;82.15;;;8.02;;
52067;SDS011;60237;52.338;21.228;2022-10-13T13:14:56;61.67;;;6.68;;
52067;SDS011;60237;52.338;21.228;2022-10-13T13:17:24;45.72;;;4.75;;
52067;SDS011;60237;52.338;21.228;2022-10-13T13:20:45;185.88;;;11.40;;
52067;SDS011;60237;52.338;21.228;2022-10-13T13:23:04;51.33;;;5.57;;
52067;SDS011;60237;52.338;21.228;2022-10-13T13:25:31;34.70;;;4.60;;
52067;SDS011;60237;52.338;21.228;2022-10-13T13:27:57;67.07;;;16.40;;
52067;SDS011;60237;52.338;21.228;2022-10-13T13:30:24;85.53;;;7.47;;
52067;SDS011;60237;52.338;21.228;2022-10-13T13:32:51;85.65;;;8.80;;
52067;SDS011;60237;52.338;21.228;2022-10-13T13:35:18;64.60;;;6.88;;
52067;SDS011;60237;52.338;21.228;2022-10-13T13:37:45;70.05;;;6.85;;
52067;SDS011;60237;52.338;21.228;2022-10-13T13:40:17;58.50;;;6.55;;
52067;SDS011;60237;52.338;21.228;2022-10-13T13:42:44;59.33;;;6.18;;
52067;SDS011;60237;52.338;21.228;2022-10-13T13:45:11;41.50;;;5.03;;
52067;SDS011;60237;52.338;21.228;2022-10-13T13:47:38;37.58;;;5.15;;
52067;SDS011;60237;52.338;21.228;2022-10-13T13:50:05;34.17;;;5.43;;
52067;SDS011;60237;52.338;21.228;2022-10-13T13:52:39;72.97;;;7.18;;
52067;SDS011;60237;52.338;21.228;2022-10-13T13:55:07;36.90;;;5.32;;
52067;SDS011;60237;52.338;21.228;2022-10-13T13:57:34;68.88;;;7.32;;
52067;SDS011;60237;52.338;21.228;2022-10-13T14:00:00;54.13;;;6.55;;
52067;SDS011;60237;52.338;21.228;2022-10-13T14:02:36;34.80;;;5.13;;
52067;SDS011;60237;52.338;21.228;2022-10-13T14:05:03;107.88;;;8.82;;
52067;SDS011;60237;52.338;21.228;2022-10-13T14:07:30;54.22;;;5.63;;
52067;SDS011;60237;52.338;21.228;2022-10-13T14:09:56;36.85;;;5.40;;
52067;SDS011;60237;52.338;21.228;2022-10-13T14:12:28;99.10;;;9.10;;
52067;SDS011;60237;52.338;21.228;2022-10-13T14:14:55;86.93;;;8.63;;
52067;SDS011;60237;52.338;21.228;2022-10-13T14:17:22;44.15;;;5.20;;
52067;SDS011;60237;52.338;21.228;2022-10-13T14:19:48;81.50;;;8.38;;
52067;SDS011;60237;52.338;21.228;2022-10-13T14:22:15;47.53;;;5.50;;
52067;SDS011;60237;52.338;21.228;2022-10-13T14:24:41;89.80;;;8.25;;
52067;SDS011;60237;52.338;21.228;2022-10-13T14:27:09;74.90;;;7.70;;
52067;SDS011;60237;52.338;21.228;2022-10-13T14:29:35;51.70;;;6.57;;
52067;SDS011;60237;52.338;21.228;2022-10-13T14:32:02;81.22;;;8.55;;
52067;SDS011;60237;52.338;21.228;2022-10-13T14:34:28;148.32;;;12.73;;
52067;SDS011;60237;52.338;21.228;2022-10-13T14:36:55;55.90;;;7.05;;
52067;SDS011;60237;52.338;21.228;2022-10-13T14:39:22;65.97;;;6.88;;
52067;SDS011;60237;52.338;21.228;2022-10-13T14:41:48;70.93;;;7.20;;
52067;SDS011;60237;52.338;21.228;2022-10-13T14:44:15;102.90;;;10.25;;
52067;SDS011;60237;52.338;21.228;2022-10-13T14:46:43;176.20;;;15.88;;
52067;SDS011;60237;52.338;21.228;2022-10-13T14:49:10;55.85;;;6.35;;
52067;SDS011;60237;52.338;21.228;2022-10-13T14:51:40;66.40;;;9.80;;
52067;SDS011;60237;52.338;21.228;2022-10-13T14:54:07;53.67;;;6.47;;
52067;SDS011;60237;52.338;21.228;2022-10-13T14:56:34;70.25;;;7.28;;
52067;SDS011;60237;52.338;21.228;2022-10-13T14:59:01;53.30;;;7.43;;
52067;SDS011;60237;52.338;21.228;2022-10-13T15:01:34;64.75;;;7.03;;
52067;SDS011;60237;52.338;21.228;2022-10-13T15:04:01;88.25;;;8.48;;
52067;SDS011;60237;52.338;21.228;2022-10-13T15:06:29;108.53;;;12.50;;
52067;SDS011;60237;52.338;21.228;2022-10-13T15:08:56;79.68;;;9.50;;
52067;SDS011;60237;52.338;21.228;2022-10-13T15:11:24;129.10;;;10.65;;
52067;SDS011;60237;52.338;21.228;2022-10-13T15:13:51;80.50;;;8.23;;
52067;SDS011;60237;52.338;21.228;2022-10-13T15:16:19;67.25;;;6.65;;
52067;SDS011;60237;52.338;21.228;2022-10-13T15:18:46;85.97;;;8.52;;
52067;SDS011;60237;52.338;21.228;2022-10-13T15:21:13;122.97;;;10.98;;
52067;SDS011;60237;52.338;21.228;2022-10-13T15:23:40;115.00;;;10.57;;
52067;SDS011;60237;52.338;21.228;2022-10-13T15:26:07;225.90;;;16.50;;
52067;SDS011;60237;52.338;21.228;2022-10-13T15:28:34;139.80;;;11.52;;
52067;SDS011;60237;52.338;21.228;2022-10-13T15:31:01;147.23;;;13.57;;
52067;SDS011;60237;52.338;21.228;2022-10-13T15:33:28;323.50;;;24.90;;
52067;SDS011;60237;52.338;21.228;2022-10-13T15:35:55;157.82;;;13.15;;
52067;SDS011;60237;52.338;21.228;2022-10-13T15:38:21;106.82;;;13.68;;
52067;SDS011;60237;52.338;21.228;2022-10-13T15:40:48;80.78;;;11.68;;
52067;SDS011;60237;52.338;21.228;2022-10-13T15:43:15;91.70;;;11.40;;
52067;SDS011;60237;52.338;21.228;2022-10-13T15:45:42;107.05;;;14.55;;
52067;SDS011;60237;52.338;21.228;2022-10-13T15:48:09;141.85;;;14.65;;